Latest Weather Observations for Bedout Island

IDW60801

Issued at 6:43 am WST Friday 19 August 2022 (issued every 10 minutes, with the page automatically refreshed every 10 minutes)

About weather observations | Map of weather stations | Latest weather observations for WA | Other Formats
Station Details ID: 004100 Name: BEDOUT ISLAND Lat: -19.59 Lon: 119.10 Height: 8.6 m
Data from the previous 72 hours. | See also: Recent months at Bedout Island
Date/Time
WST
Temp
°C
App
Temp
°C
Dew
Point
°C
Rel
Hum
%
Delta-T
°C
Wind Press
QNH
hPa
Press
MSL
hPa
Rain since
9am
mm
Dir  Spd
km/h
Gust
km/h
Spd
kts
Gust
kts
19/06:30am 20.8 11.9 15.4 71 3.2 ESE 56 65 30 35 1018.5 1018.5 -
19/06:00am 21.2 12.8 16.6 75 2.8 ESE 56 65 30 35 1018.1 1018.1 -
19/05:30am 21.4 12.7 16.4 73 3.0 ESE 57 65 31 35 1017.8 1017.8 -
19/05:00am 21.6 12.8 16.1 71 3.3 ESE 57 67 31 36 1017.5 1017.5 -
19/04:30am 21.8 13.4 16.5 72 3.2 ESE 56 67 30 36 1017.3 1017.3 -
19/04:00am 22.1 13.0 16.4 70 3.5 ESE 59 69 32 37 1017.1 1017.1 -
19/03:30am 22.5 13.9 16.5 69 3.7 ESE 57 69 31 37 1017.0 1017.0 -
19/03:00am 22.7 14.9 17.2 71 3.4 ESE 54 65 29 35 1017.1 1017.1 -
19/02:30am 22.8 15.6 17.7 73 3.2 ESE 52 63 28 34 1017.1 1017.1 -
19/02:00am 23.1 17.1 18.6 76 2.8 ESE 48 57 26 31 1017.4 1017.4 -
19/01:30am 23.4 17.3 19.3 78 2.6 SE 50 57 27 31 1017.4 1017.4 -
19/01:00am 23.6 19.2 20.5 83 2.0 SE 44 52 24 28 1017.4 1017.4 -
19/12:30am 24.0 19.2 20.5 81 2.3 ESE 46 56 25 30 1017.4 1017.4 -
19/12:00am 24.0 20.9 21.9 88 1.4 ESE 41 46 22 25 1017.3 1017.3 -
 
Date/Time
WST
Temp
°C
App
Temp
°C
Dew
Point
°C
Rel
Hum
%
Delta-T
°C
Wind Press
QNH
hPa
Press
MSL
hPa
Rain since
9am
mm
Dir  Spd
km/h
Gust
km/h
Spd
kts
Gust
kts
18/11:30pm 24.0 21.8 22.8 93 0.8 ESE 39 44 21 24 1017.2 1017.2 -
18/11:00pm 24.2 21.8 22.6 91 1.1 ESE 39 46 21 25 1017.3 1017.3 -
18/10:30pm 24.3 22.6 23.1 93 0.8 ESE 37 43 20 23 1017.3 1017.3 -
18/10:00pm 23.8 24.5 23.6 99 0.1 SE 26 33 14 18 1017.2 1017.2 -
18/09:30pm 22.8 24.4 22.8 100 0.0 SSE 19 22 10 12 1017.1 1017.1 -
18/09:00pm 22.8 24.4 22.8 100 0.0 SE 19 20 10 11 1017.2 1017.2 -
18/08:30pm 22.3 24.7 22.3 100 0.0 SSE 13 17 7 9 1017.0 1017.0 -
18/08:00pm 22.3 25.5 22.3 100 0.0 ENE 9 11 5 6 1016.7 1016.7 -
18/07:30pm 23.3 27.0 23.3 100 0.0 NE 9 9 5 5 1016.3 1016.3 -
18/07:00pm 23.1 26.7 23.1 100 0.0 NNE 9 9 5 5 1016.1 1016.1 -
18/06:30pm 23.2 26.9 23.2 100 0.0 NNE 9 9 5 5 1015.7 1015.7 -
18/06:00pm 23.8 27.4 23.8 100 0.0 NNE 11 13 6 7 1015.3 1015.3 -
18/05:30pm 24.3 27.9 24.3 100 0.0 NE 13 13 7 7 1015.0 1015.0 -
18/05:00pm 25.1 29.0 24.8 98 0.2 NNE 13 15 7 8 1015.0 1015.0 -
18/04:30pm 25.6 29.0 24.6 94 0.7 NNE 15 17 8 9 1014.9 1014.9 -
18/04:00pm 25.9 29.7 24.7 93 0.8 N 13 13 7 7 1014.8 1014.8 -
18/03:30pm 25.8 29.6 24.0 90 1.2 NNE 11 15 6 8 1014.8 1014.8 -
18/03:00pm 26.4 29.5 24.2 88 1.5 NE 15 17 8 9 1014.8 1014.8 -
18/02:30pm 26.1 29.2 24.1 89 1.4 NE 15 17 8 9 1015.0 1015.0 -
18/02:00pm 25.7 29.6 23.6 88 1.4 ENE 9 20 5 11 1015.2 1015.2 -
18/01:30pm 26.2 28.2 23.9 87 1.6 E 20 24 11 13 1015.6 1015.6 -
18/01:00pm 26.3 28.3 24.0 87 1.6 E 20 24 11 13 1016.0 1016.0 -
18/12:30pm 25.9 27.5 23.8 88 1.4 E 22 24 12 13 1016.4 1016.4 -
18/12:00pm 25.7 26.4 23.0 85 1.8 ENE 24 28 13 15 1016.8 1016.8 -
18/11:30am 25.8 26.0 23.5 87 1.6 E 28 33 15 18 1017.1 1017.1 -
18/11:00am 25.6 25.1 23.5 88 1.4 ESE 32 35 17 19 1017.4 1017.4 -
18/10:30am 24.6 24.0 23.7 95 0.6 ESE 33 39 18 21 1017.7 1017.7 -
18/10:00am 24.3 23.6 24.1 99 0.1 ESE 35 41 19 22 1017.9 1017.9 -
18/09:30am 24.6 24.2 24.6 100 0.0 ESE 35 43 19 23 1017.9 1017.9 -
18/09:00am 24.0 23.8 24.0 100 0.0 ESE 32 39 17 21 1017.7 1017.7 -
18/08:30am 23.4 22.8 23.4 100 0.0 E 32 39 17 21 1017.5 1017.5 -
18/08:00am 23.0 21.6 23.0 100 0.0 ESE 35 41 19 22 1017.2 1017.2 -
18/07:30am 22.9 22.0 22.9 100 0.0 SE 32 35 17 19 1016.9 1016.9 -
18/07:00am 22.4 21.6 22.4 100 0.0 SE 30 33 16 18 1016.4 1016.4 -
18/06:30am 22.1 22.3 22.1 100 0.0 SSE 24 30 13 16 1016.0 1016.0 -
18/06:00am 22.3 23.0 22.3 100 0.0 S 22 26 12 14 1015.8 1015.8 -
18/05:30am 22.5 23.3 22.5 100 0.0 SSW 22 26 12 14 1015.5 1015.5 -
18/05:00am 22.9 23.6 22.9 100 0.0 SW 24 28 13 15 1015.0 1015.0 -
18/04:30am 23.1 23.9 23.1 100 0.0 SW 24 28 13 15 1014.7 1014.7 -
18/04:00am 23.1 23.9 23.1 100 0.0 SW 24 30 13 16 1014.6 1014.6 -
18/03:30am 23.3 23.8 23.3 100 0.0 SW 26 32 14 17 1014.5 1014.5 -
18/03:00am 23.3 23.8 23.3 100 0.0 WSW 26 30 14 16 1014.5 1014.5 -
18/02:30am 23.1 23.9 23.1 100 0.0 WSW 24 28 13 15 1014.7 1014.7 -
18/02:00am 23.2 24.0 23.2 100 0.0 ENE 24 28 13 15 1014.9 1014.9 -
18/01:30am 23.2 24.4 23.2 100 0.0 W 22 28 12 15 1015.1 1015.1 -
18/01:00am 23.1 24.2 23.1 100 0.0 W 22 26 12 14 1015.5 1015.5 -
18/12:30am 23.3 24.9 23.3 100 0.0 W 20 22 11 12 1015.8 1015.8 -
18/12:00am 23.3 25.1 23.3 100 0.0 WNW 19 20 10 11 1016.1 1016.1 -
 
Date/Time
WST
Temp
°C
App
Temp
°C
Dew
Point
°C
Rel
Hum
%
Delta-T
°C
Wind Press
QNH
hPa
Press
MSL
hPa
Rain since
9am
mm
Dir  Spd
km/h
Gust
km/h
Spd
kts
Gust
kts
17/11:30pm 23.2 25.0 23.2 100 0.0 WNW 19 20 10 11 1016.3 1016.3 -
17/11:00pm 23.2 25.4 23.2 100 0.0 W 17 20 9 11 1016.3 1016.3 -
17/10:30pm 23.1 25.2 23.1 100 0.0 W 17 20 9 11 1016.4 1016.4 -
17/10:00pm 23.2 24.8 23.2 100 0.0 W 20 24 11 13 1016.6 1016.6 -
17/09:30pm 23.2 25.0 23.2 100 0.0 WNW 19 20 10 11 1016.5 1016.5 -
17/09:00pm 23.2 25.0 23.2 100 0.0 WNW 19 20 10 11 1016.5 1016.5 -
17/08:30pm 23.3 25.1 23.3 100 0.0 WNW 19 20 10 11 1016.4 1016.4 -
17/08:00pm 23.3 25.1 23.3 100 0.0 WNW 19 20 10 11 1016.0 1016.0 -
17/07:30pm 23.4 25.7 23.4 100 0.0 NW 17 20 9 11 1015.8 1015.8 -
17/07:00pm 23.5 25.4 23.5 100 0.0 NW 19 20 10 11 1015.5 1015.5 -
17/06:30pm 23.6 26.0 23.6 100 0.0 NW 17 20 9 11 1015.3 1015.3 -
17/06:00pm 23.8 25.9 23.8 100 0.0 NW 19 20 10 11 1015.0 1015.0 -
17/05:30pm 24.5 27.0 24.5 100 0.0 WNW 19 20 10 11 1014.9 1014.9 -
17/05:00pm 25.1 28.4 25.1 100 0.0 WNW 17 20 9 11 1014.8 1014.8 -
17/04:30pm 25.7 29.0 25.7 100 0.0 W 19 22 10 12 1014.9 1014.9 -
17/04:00pm 25.8 29.2 25.8 100 0.0 W 19 22 10 12 1014.9 1014.9 -
17/03:30pm 26.1 29.5 26.1 100 0.0 W 20 24 11 13 1014.9 1014.9 -
17/03:00pm 26.1 29.5 25.9 99 0.1 W 19 20 10 11 1014.9 1014.9 -
17/02:30pm 26.2 29.6 25.9 98 0.2 WNW 19 20 10 11 1015.0 1015.0 -
17/02:00pm 26.5 30.6 26.3 99 0.1 WNW 17 20 9 11 1015.1 1015.1 -
17/01:30pm 25.9 29.9 25.6 98 0.2 W 15 19 8 10 1015.4 1015.4 -
17/01:00pm 25.8 29.8 25.6 99 0.1 W 15 17 8 9 1015.8 1015.8 -
17/12:30pm 25.6 30.0 25.6 100 0.0 W 13 15 7 8 1016.2 1016.2 -
17/12:00pm 25.3 29.1 25.3 100 0.0 SW 15 17 8 9 1016.6 1016.6 -
17/11:30am 25.0 28.6 25.0 100 0.0 SW 15 17 8 9 1017.0 1017.0 -
17/11:00am 24.9 28.4 24.9 100 0.0 SW 15 19 8 10 1017.4 1017.4 -
17/10:30am 24.2 27.7 24.2 100 0.0 SW 13 15 7 8 1017.7 1017.7 -
17/10:00am 23.8 27.1 23.8 100 0.0 SW 13 15 7 8 1017.9 1017.9 -
17/09:30am 23.5 26.6 23.5 100 0.0 SSW 13 15 7 8 1017.8 1017.8 -
17/09:00am 22.9 24.9 22.9 100 0.0 WSW 17 20 9 11 1017.7 1017.7 -
17/08:30am 22.3 23.4 22.3 100 0.0 SW 20 24 11 13 1017.4 1017.4 -
17/08:00am 22.2 22.9 22.2 100 0.0 SW 22 28 12 15 1017.1 1017.1 -
17/07:30am 22.5 23.3 22.5 100 0.0 SSW 22 26 12 14 1016.7 1016.7 -
17/07:00am 22.2 22.9 22.2 100 0.0 SW 22 26 12 14 1016.3 1016.3 -
17/06:30am 22.0 22.5 22.0 100 0.0 SW 22 26 12 14 1016.1 1016.1 -
17/06:00am 22.0 23.5 22.0 100 0.0 WSW 17 20 9 11 1015.7 1015.7 -
17/05:30am 21.6 23.6 21.6 100 0.0 SSW 13 15 7 8 1015.2 1015.2 -
17/05:00am 21.8 24.0 21.8 100 0.0 SW 13 15 7 8 1014.7 1014.7 -
17/04:30am 21.9 24.1 21.9 100 0.0 SW 13 15 7 8 1014.4 1014.4 -
17/04:00am 21.5 23.9 21.5 100 0.0 WSW 11 13 6 7 1014.2 1014.2 -
17/03:30am 21.3 25.3 21.3 100 0.0 SW 2 4 1 2 1014.3 1014.3 -
17/03:00am 20.8 24.9 20.8 100 0.0 CALM 0 4 0 2 1014.4 1014.4 -
17/02:30am 22.0 26.7 22.0 100 0.0 CALM 0 6 0 3 1014.3 1014.3 -
17/02:00am 22.2 27.0 22.2 100 0.0 CALM 0 2 0 1 1014.6 1014.6 -
17/01:30am 22.4 27.3 22.4 100 0.0 CALM 0 4 0 2 1014.5 1014.5 -
17/01:00am 22.3 27.2 22.3 100 0.0 CALM 0 6 0 3 1014.7 1014.7 -
17/12:30am 22.0 26.7 22.0 100 0.0 CALM 0 4 0 2 1014.7 1014.7 -
17/12:00am 22.0 26.7 22.0 100 0.0 CALM 0 4 0 2 1014.8 1014.8 -
 
Date/Time
WST
Temp
°C
App
Temp
°C
Dew
Point
°C
Rel
Hum
%
Delta-T
°C
Wind Press
QNH
hPa
Press
MSL
hPa
Rain since
9am
mm
Dir  Spd
km/h
Gust
km/h
Spd
kts
Gust
kts
16/11:30pm 21.9 25.8 21.9 100 0.0 NW 4 13 2 7 1014.9 1014.9 -
16/11:00pm 22.4 27.3 22.4 100 0.0 CALM 0 7 0 4 1015.1 1015.1 -
16/10:30pm 22.0 26.7 22.0 100 0.0 CALM 0 4 0 2 1015.4 1015.4 -
16/10:00pm 22.3 27.2 22.3 100 0.0 CALM 0 4 0 2 1015.5 1015.5 -
16/09:30pm 22.6 26.3 22.6 100 0.0 NE 7 7 4 4 1015.5 1015.5 -
16/09:00pm 22.5 26.4 22.5 100 0.0 NE 6 7 3 4 1015.4 1015.4 -
16/08:30pm 22.4 26.0 22.4 100 0.0 NE 7 9 4 5 1015.4 1015.4 -
16/08:00pm 21.8 24.3 21.8 100 0.0 NE 11 13 6 7 1015.2 1015.2 -
16/07:30pm 22.4 25.6 22.4 100 0.0 NE 9 9 5 5 1014.9 1014.9 -
16/06:30pm 23.4 28.1 23.4 100 0.0 NE 4 6 2 3 1014.4 1014.4 -
16/06:00pm 24.0 29.8 24.0 100 0.0 CALM 0 0 0 0 1014.1 1014.1 -
16/05:30pm 25.0 30.3 23.1 89 1.3 CALM 0 0 0 0 1014.0 1014.0 -
16/05:00pm 24.9 29.2 23.7 93 0.8 NE 7 9 4 5 1013.9 1013.9 -
16/04:30pm 25.4 29.5 24.0 92 1.0 NE 9 9 5 5 1013.9 1013.9 -
16/04:00pm 25.5 29.4 23.6 89 1.3 NNE 9 9 5 5 1014.0 1014.0 -
16/03:30pm 25.8 29.5 23.3 86 1.7 N 9 9 5 5 1013.9 1013.9 -
16/03:00pm 25.8 28.9 22.9 84 2.0 NE 11 13 6 7 1013.9 1013.9 -
16/02:30pm 26.6 29.5 23.1 81 2.4 NNE 13 15 7 8 1014.0 1014.0 -
16/02:00pm 26.5 29.2 22.8 80 2.5 NE 13 15 7 8 1014.2 1014.2 -
16/01:30pm 26.6 28.5 22.7 79 2.6 NE 17 20 9 11 1014.5 1014.5 -
16/01:00pm 26.6 29.5 22.4 78 2.8 NNE 11 15 6 8 1014.7 1014.7 -
16/12:30pm 26.5 28.9 21.5 74 3.3 ENE 11 13 6 7 1014.9 1014.9 -
16/12:00pm 26.5 28.6 21.7 75 3.2 ENE 13 15 7 8 1015.1 1015.1 -
16/11:30am 26.3 28.5 21.9 77 2.9 ENE 13 17 7 9 1015.6 1015.6 -
16/11:00am 26.0 27.8 21.9 78 2.7 E 15 17 8 9 1015.6 1015.6 -
16/10:30am 26.2 28.5 22.7 81 2.4 NE 15 17 8 9 1015.9 1015.9 -
16/10:00am 25.6 27.3 22.3 82 2.2 NE 17 19 9 10 1016.2 1016.2 -
16/09:30am 25.1 26.3 22.2 84 1.9 E 19 20 10 11 1016.2 1016.2 -
16/09:00am 24.6 26.6 23.6 94 0.7 ENE 19 22 10 12 1016.0 1016.0 -
16/08:30am 24.1 26.4 24.1 100 0.0 ENE 19 22 10 12 1015.8 1015.8 -
16/08:00am 23.6 25.6 23.6 100 0.0 ENE 19 24 10 13 1015.5 1015.5 -
16/07:30am 23.0 24.5 23.0 100 0.0 E 20 24 11 13 1015.2 1015.2 -
16/07:00am 22.3 24.3 22.3 100 0.0 E 15 17 8 9 1014.8 1014.8 -

Other formats

Comma delimited format used in spreadsheet applications
http://www.bom.gov.au/fwo/IDW60801/IDW60801.94310.axf

JavaScript Object Notation format (JSON) in row-major order
http://www.bom.gov.au/fwo/IDW60801/IDW60801.94310.json

Data quality

Most of these data are generated automatically and are frequently updated. Quality checks on data are not normally performed. It is possible for incorrect values to appear. Refer to information at About Latest Weather Observations and please check the disclaimer before using these data.